Time;durP1;ratioP1;P1;durP2;ratioP2;P2;SDS_P1;SDS_P2;PMS_P1;PMS_P2;Temp;Humidity;BMP_temperature;BMP_pressure;BME280_temperature;BME280_humidity;BME280_pressure;Samples;Min_cycle;Max_cycle;Signal;HPM_P1;HPM_P2
2021/01/30 00:00:08;;;;;;;141.47;49.47;;;;;;;3.78;73.17;98595.84;5125975;28;20019;-69
2021/01/30 00:02:33;;;;;;;117.63;46.53;;;;;;;3.74;74.07;98591.88;5125742;28;20034;-67
2021/01/30 00:04:59;;;;;;;111.70;44.20;;;;;;;3.94;72.30;98587.31;5125919;28;20047;-67
2021/01/30 00:07:25;;;;;;;122.87;46.37;;;;;;;4.02;72.72;98588.22;5125711;28;20027;-63
2021/01/30 00:09:51;;;;;;;159.53;56.40;;;;;;;3.99;73.30;98579.84;5125390;28;20042;-67
2021/01/30 00:12:16;;;;;;;100.17;43.33;;;;;;;4.28;72.30;98569.16;5125587;27;20040;-63
2021/01/30 00:14:42;;;;;;;115.13;46.40;;;;;;;4.24;72.52;98566.03;5125532;28;20117;-63
2021/01/30 00:17:08;;;;;;;114.07;48.07;;;;;;;4.03;74.13;98561.06;5125592;28;20028;-66
2021/01/30 00:19:35;;;;;;;124.93;50.67;;;;;;;4.02;74.49;98562.03;5125359;28;20070;-63
2021/01/30 00:22:09;;;;;;;114.27;49.13;;;;;;;4.39;73.26;98563.69;5125699;28;20069;-63
2021/01/30 00:24:35;;;;;;;100.95;45.28;;;;;;;4.29;73.71;98555.91;5125439;28;20072;-67
2021/01/30 00:27:03;;;;;;;106.10;47.20;;;;;;;4.29;74.11;98550.69;5125443;28;20225;-64
2021/01/30 00:29:31;;;;;;;117.00;49.67;;;;;;;4.44;72.90;98546.53;5125172;28;20095;-63
2021/01/30 00:31:57;;;;;;;108.07;47.57;;;;;;;4.51;72.44;98546.75;5125178;28;20035;-67
2021/01/30 00:34:24;;;;;;;106.83;48.23;;;;;;;4.42;72.49;98545.88;5125049;28;20035;-63
2021/01/30 00:36:51;;;;;;;105.63;47.47;;;;;;;4.40;73.43;98550.44;5125462;28;20023;-62
2021/01/30 00:39:17;;;;;;;109.43;48.43;;;;;;;4.27;74.96;98554.44;5125136;28;20261;-63
2021/01/30 00:41:42;;;;;;;116.27;48.43;;;;;;;4.12;76.08;98561.97;5125054;28;20344;-63
2021/01/30 00:44:08;;;;;;;100.87;45.07;;;;;;;4.06;76.07;98552.09;5124816;28;20083;-66
2021/01/30 00:46:33;;;;;;;106.97;46.43;;;;;;;3.99;76.70;98564.13;5123729;28;20031;-63
2021/01/30 00:48:59;;;;;;;107.77;47.53;;;;;;;4.04;77.59;98548.78;5124977;28;20087;-67
2021/01/30 00:51:24;;;;;;;114.43;47.87;;;;;;;4.10;77.26;98546.41;5124758;28;20031;-63
2021/01/30 00:53:50;;;;;;;109.40;50.07;;;;;;;4.13;76.46;98540.03;5124738;28;20051;-67
2021/01/30 00:56:15;;;;;;;114.20;49.37;;;;;;;4.23;76.03;98530.31;5125296;28;20039;-63
2021/01/30 00:58:45;;;;;;;113.67;48.57;;;;;;;4.31;74.73;98521.69;5124977;28;20352;-66
2021/01/30 01:01:11;;;;;;;115.90;50.07;;;;;;;4.07;75.86;98532.78;5125144;28;20036;-63
2021/01/30 01:03:37;;;;;;;117.03;51.93;;;;;;;4.04;76.69;98519.97;5124753;28;20059;-67
2021/01/30 01:06:04;;;;;;;120.93;54.23;;;;;;;4.16;76.23;98506.53;5124931;28;20098;-67
2021/01/30 01:08:30;;;;;;;132.77;57.87;;;;;;;4.29;74.92;98503.50;5124451;28;20042;-67
2021/01/30 01:10:56;;;;;;;126.17;52.93;;;;;;;4.29;74.69;98500.91;5124180;28;20300;-63
2021/01/30 01:13:21;;;;;;;123.73;52.87;;;;;;;4.01;75.25;98494.91;5124373;28;20070;-65
2021/01/30 01:15:47;;;;;;;123.63;52.67;;;;;;;3.88;76.43;98484.00;5124740;28;20034;-69
2021/01/30 01:18:13;;;;;;;122.80;53.97;;;;;;;3.97;77.35;98482.28;5124220;28;20081;-68
2021/01/30 01:20:38;;;;;;;129.93;55.13;;;;;;;4.09;76.63;98473.19;5124475;28;20301;-69
2021/01/30 01:23:04;;;;;;;133.80;55.10;;;;;;;4.03;76.93;98473.81;5124317;28;20238;-65
2021/01/30 01:25:30;;;;;;;126.20;53.53;;;;;;;4.05;76.92;98469.25;5124481;28;20035;-65
2021/01/30 01:27:55;;;;;;;123.53;54.27;;;;;;;4.11;76.69;98458.97;5124146;28;20036;-69
2021/01/30 01:30:23;;;;;;;112.27;49.43;;;;;;;4.15;76.03;98449.84;5124231;28;20091;-65
2021/01/30 01:32:49;;;;;;;118.37;52.07;;;;;;;3.99;77.02;98448.88;5124005;28;20325;-65
2021/01/30 01:35:18;;;;;;;115.40;50.37;;;;;;;3.88;77.65;98449.13;5124070;28;20027;-68
2021/01/30 01:37:45;;;;;;;135.93;54.83;;;;;;;3.71;79.20;98454.22;5123894;28;20027;-69
2021/01/30 01:40:13;;;;;;;128.23;54.73;;;;;;;3.85;78.80;98443.22;5124139;28;20047;-63
2021/01/30 01:42:38;;;;;;;120.30;51.33;;;;;;;3.80;79.24;98444.66;5123862;28;20027;-63
2021/01/30 01:45:05;;;;;;;120.27;54.30;;;;;;;3.98;78.78;98445.44;5123894;28;20031;-63
2021/01/30 01:47:38;;;;;;;110.97;51.23;;;;;;;3.91;78.58;98448.81;5123694;28;20241;-63
2021/01/30 01:50:26;;;;;;;114.00;51.80;;;;;;;4.05;78.26;98445.66;5123879;28;20065;-67
2021/01/30 01:52:57;;;;;;;132.37;56.03;;;;;;;4.23;77.86;98446.47;5122488;28;20027;-67
2021/01/30 01:55:22;;;;;;;128.03;57.87;;;;;;;4.35;77.21;98429.53;5123956;28;20032;-67
2021/01/30 01:57:54;;;;;;;137.37;60.93;;;;;;;4.28;77.49;98425.06;5123176;28;20077;-63
2021/01/30 02:00:21;;;;;;;149.90;63.07;;;;;;;4.30;77.39;98413.44;5123772;28;20032;-63
2021/01/30 02:02:49;;;;;;;154.93;64.57;;;;;;;4.52;75.93;98412.09;5123515;28;20042;-67
2021/01/30 02:05:22;;;;;;;160.23;68.23;;;;;;;4.54;75.71;98398.81;5123691;28;20046;-67
2021/01/30 02:07:48;;;;;;;160.45;68.07;;;;;;;4.46;76.16;98386.50;5123509;28;20069;-67
2021/01/30 02:10:23;;;;;;;146.67;63.17;;;;;;;4.30;76.46;98368.06;5123259;28;20039;-69
2021/01/30 02:12:53;;;;;;;133.43;56.60;;;;;;;4.03;77.68;98348.09;5123451;28;20047;-64
2021/01/30 02:15:20;;;;;;;119.60;53.07;;;;;;;3.38;81.27;98339.75;5123757;28;20370;-68
2021/01/30 02:18:10;;;;;;;121.43;54.07;;;;;;;3.12;83.75;98331.81;5123460;28;20039;-68
2021/01/30 02:21:00;;;;;;;134.40;53.33;;;;;;;3.10;83.64;98325.91;5123136;28;20335;-65
2021/01/30 02:23:44;;;;;;;126.97;54.27;;;;;;;3.08;83.75;98333.91;5123270;28;20339;-68
2021/01/30 02:26:47;;;;;;;134.80;57.35;;;;;;;3.18;84.95;98339.91;5123803;28;20104;-68
2021/01/30 02:29:28;;;;;;;130.80;56.47;;;;;;;3.29;84.55;98343.28;5123074;28;20034;-69
2021/01/30 02:32:21;;;;;;;117.20;53.03;;;;;;;3.47;84.00;98344.09;5123199;28;20396;-63
2021/01/30 02:35:11;;;;;;;115.80;51.87;;;;;;;3.50;82.39;98334.16;5123154;28;20031;-63
2021/01/30 02:37:40;;;;;;;121.77;51.40;;;;;;;3.52;82.72;98332.19;5123422;28;20065;-63
2021/01/30 02:40:12;;;;;;;118.53;52.03;;;;;;;3.68;81.44;98321.03;5123241;28;20317;-63
2021/01/30 02:42:43;;;;;;;115.20;51.17;;;;;;;4.02;79.85;98325.50;5123222;28;20036;-66
2021/01/30 02:45:20;;;;;;;122.30;52.57;;;;;;;3.68;80.95;98318.41;5121967;28;20267;-67
2021/01/30 02:47:56;;;;;;;119.27;49.80;;;;;;;3.88;81.05;98332.13;5122014;28;20027;-62
2021/01/30 02:50:25;;;;;;;121.03;52.03;;;;;;;3.75;81.06;98327.28;5123218;28;20090;-63
2021/01/30 02:52:56;;;;;;;117.20;52.17;;;;;;;3.75;81.36;98323.84;5123425;28;20062;-63
2021/01/30 02:55:24;;;;;;;117.60;49.70;;;;;;;3.96;80.16;98313.84;5123269;28;20036;-63
2021/01/30 02:57:52;;;;;;;103.93;47.00;;;;;;;4.06;79.46;98305.88;5123050;28;20031;-63
2021/01/30 03:00:21;;;;;;;91.87;45.37;;;;;;;4.15;78.68;98307.53;5123391;28;20044;-67
2021/01/30 03:02:46;;;;;;;97.80;45.13;;;;;;;4.11;79.50;98299.19;5122995;28;20036;-67
2021/01/30 03:05:13;;;;;;;103.80;44.90;;;;;;;4.01;79.44;98306.34;5123084;28;20038;-63
2021/01/30 03:07:44;;;;;;;94.97;44.27;;;;;;;4.00;79.89;98314.34;5123133;28;20027;-63
2021/01/30 03:10:25;;;;;;;95.67;44.07;;;;;;;4.09;78.93;98311.63;5124627;28;20245;-63
2021/01/30 03:13:11;;;;;;;99.73;45.03;;;;;;;4.07;79.94;98308.31;5127073;28;20040;-67
2021/01/30 03:15:52;;;;;;;90.83;43.77;;;;;;;3.99;79.95;98295.19;5126959;28;20039;-67
2021/01/30 03:18:23;;;;;;;92.73;42.87;;;;;;;4.18;79.17;98285.50;5126728;28;20039;-66
2021/01/30 03:20:49;;;;;;;89.97;42.67;;;;;;;4.20;78.85;98283.53;5126456;28;20043;-67
2021/01/30 03:23:17;;;;;;;94.73;44.93;;;;;;;4.05;79.15;98280.66;5126927;28;20039;-67
2021/01/30 03:25:44;;;;;;;94.47;43.77;;;;;;;4.14;78.82;98277.09;5126816;28;20043;-67
2021/01/30 03:28:11;;;;;;;90.97;43.90;;;;;;;4.40;77.27;98267.41;5126503;28;20035;-67
2021/01/30 03:30:38;;;;;;;96.73;43.90;;;;;;;4.31;77.86;98265.72;5126572;28;20061;-67
2021/01/30 03:33:05;;;;;;;86.57;42.23;;;;;;;4.16;78.49;98238.47;5126632;28;20268;-63
2021/01/30 03:35:31;;;;;;;95.37;44.83;;;;;;;4.31;77.46;98229.03;5126544;28;20032;-62
2021/01/30 03:37:56;;;;;;;93.57;43.40;;;;;;;4.30;76.83;98223.97;5126336;28;20046;-65
2021/01/30 03:40:23;;;;;;;143.10;55.20;;;;;;;4.03;78.15;98231.03;5126477;28;20034;-68
2021/01/30 03:42:49;;;;;;;128.23;50.40;;;;;;;3.97;79.08;98234.28;5126189;28;20043;-66
2021/01/30 03:45:17;;;;;;;102.37;46.40;;;;;;;3.92;79.47;98220.03;5126070;27;20039;-67
2021/01/30 03:47:43;;;;;;;102.70;44.17;;;;;;;3.91;79.53;98219.22;5126328;28;20039;-67
2021/01/30 03:50:09;;;;;;;94.37;44.43;;;;;;;4.14;78.19;98222.09;5126317;28;20293;-67
2021/01/30 03:52:35;;;;;;;93.13;45.83;;;;;;;4.13;77.90;98215.19;5125976;28;20044;-67
2021/01/30 03:55:01;;;;;;;109.80;52.70;;;;;;;4.24;77.29;98209.69;5125924;28;20257;-63
2021/01/30 03:57:26;;;;;;;111.10;52.63;;;;;;;4.19;77.08;98214.59;5126009;28;20062;-67
2021/01/30 03:59:52;;;;;;;107.60;49.30;;;;;;;3.89;78.79;98217.72;5125900;28;20297;-63
2021/01/30 04:02:17;;;;;;;99.50;46.37;;;;;;;4.02;78.15;98210.25;5126216;28;20065;-63
2021/01/30 04:04:44;;;;;;;105.87;49.27;;;;;;;4.09;78.24;98219.13;5125673;28;20020;-62
2021/01/30 04:07:10;;;;;;;119.30;56.60;;;;;;;4.23;77.68;98210.69;5125835;28;20036;-66
2021/01/30 04:09:35;;;;;;;132.93;60.90;;;;;;;3.88;79.41;98190.72;5125354;28;20047;-63
2021/01/30 04:12:01;;;;;;;130.63;57.93;;;;;;;3.87;79.95;98183.03;5125633;28;20325;-67
2021/01/30 04:14:27;;;;;;;130.03;57.47;;;;;;;4.07;78.43;98182.59;5125549;28;20238;-67
2021/01/30 04:16:52;;;;;;;141.67;60.20;;;;;;;4.01;78.48;98179.78;5125554;28;20031;-63
2021/01/30 04:19:17;;;;;;;124.53;57.47;;;;;;;3.92;78.93;98178.94;5125323;28;20317;-64
2021/01/30 04:21:44;;;;;;;126.67;58.40;;;;;;;3.88;79.41;98177.63;5125003;28;20087;-67
2021/01/30 04:24:09;;;;;;;129.47;60.20;;;;;;;3.99;78.78;98176.53;5125312;28;20035;-63
2021/01/30 04:26:35;;;;;;;121.17;57.40;;;;;;;3.85;79.23;98163.06;5125728;28;20042;-67
2021/01/30 04:29:01;;;;;;;119.70;57.30;;;;;;;3.86;78.98;98171.72;5125069;28;20036;-63
2021/01/30 04:31:26;;;;;;;115.37;54.87;;;;;;;3.76;79.55;98174.47;5125221;28;20035;-67
2021/01/30 04:33:52;;;;;;;119.27;55.53;;;;;;;3.57;80.50;98164.25;5125117;28;20127;-63
2021/01/30 04:36:19;;;;;;;116.47;53.03;;;;;;;3.75;80.20;98158.91;5125733;28;20325;-63
2021/01/30 04:38:45;;;;;;;113.00;52.73;;;;;;;3.81;79.16;98153.06;5125065;28;20248;-63
2021/01/30 04:41:25;;;;;;;116.27;54.53;;;;;;;3.69;80.07;98156.94;5125525;28;20038;-67
2021/01/30 04:43:59;;;;;;;105.87;50.13;;;;;;;3.75;81.08;98143.22;5124994;28;20059;-67
2021/01/30 04:46:57;;;;;;;113.13;54.10;;;;;;;3.89;80.13;98152.25;5125011;28;20352;-63
2021/01/30 04:49:39;;;;;;;125.10;56.93;;;;;;;3.91;79.79;98150.31;5090459;28;20224;-67
2021/01/30 04:52:11;;;;;;;122.87;54.90;;;;;;;4.00;79.16;98141.50;5124944;28;20034;-67
2021/01/30 04:54:57;;;;;;;123.00;58.80;;;;;;;3.75;80.68;98153.69;5124834;28;20040;-63
2021/01/30 04:57:33;;;;;;;134.90;60.97;;;;;;;3.77;81.01;98152.53;5125150;28;20059;-63
2021/01/30 05:00:24;;;;;;;130.57;59.03;;;;;;;3.98;79.65;98151.31;5124844;27;20065;-63
2021/01/30 05:03:49;;;;;;;125.00;59.13;;;;;;;3.97;80.01;98153.09;5124929;28;20043;-67
2021/01/30 05:06:37;;;;;;;123.53;55.70;;;;;;;3.80;80.15;98141.75;5061907;28;20044;-67
2021/01/30 05:09:19;;;;;;;140.83;61.07;;;;;;;3.64;81.33;98143.50;5124407;28;20039;-66
2021/01/30 05:12:05;;;;;;;131.47;58.83;;;;;;;3.61;81.36;98144.63;5124298;28;20086;-67
2021/01/30 05:14:36;;;;;;;121.07;57.07;;;;;;;3.72;81.12;98151.38;5124391;28;20031;-62
2021/01/30 05:17:04;;;;;;;125.57;56.80;;;;;;;3.68;81.17;98148.25;5124374;28;20080;-67
2021/01/30 05:19:37;;;;;;;126.93;59.10;;;;;;;3.55;81.78;98142.63;5124360;28;20037;-63
2021/01/30 05:22:07;;;;;;;93.32;44.20;;;;;;;3.35;82.77;98149.06;5124408;28;20042;-67
2021/01/30 05:24:32;;;;;;;135.80;61.13;;;;;;;3.23;83.68;98153.75;5124180;28;20032;-63
2021/01/30 05:27:01;;;;;;;145.97;66.97;;;;;;;3.16;84.06;98150.13;5124289;28;20034;-65
2021/01/30 05:30:05;;;;;;;147.20;66.73;;;;;;;3.28;83.86;98156.72;5124148;28;20027;-65
2021/01/30 05:32:57;;;;;;;146.90;65.03;;;;;;;3.09;85.15;98152.50;5072082;28;20160;-64
2021/01/30 05:35:30;;;;;;;134.00;61.73;;;;;;;2.96;85.53;98161.72;5124226;28;20032;-64
2021/01/30 05:38:05;;;;;;;158.32;72.82;;;;;;;3.03;86.50;98179.25;5124054;27;20034;-65
2021/01/30 05:40:56;;;;;;;154.87;70.23;;;;;;;3.10;85.79;98167.22;5124319;28;20067;-68
2021/01/30 05:43:32;;;;;;;149.63;70.73;;;;;;;3.09;85.56;98162.94;5123941;28;20027;-69
2021/01/30 05:46:00;;;;;;;149.90;70.77;;;;;;;2.97;85.95;98164.19;5124305;28;20035;-65
2021/01/30 05:48:34;;;;;;;149.83;72.10;;;;;;;3.10;86.01;98167.22;5123688;28;20047;-64
2021/01/30 05:51:10;;;;;;;172.77;81.83;;;;;;;3.12;86.10;98167.91;5123978;28;20356;-65
2021/01/30 05:53:36;;;;;;;178.17;84.03;;;;;;;3.08;86.71;98171.78;5123686;27;20081;-65
2021/01/30 05:56:01;;;;;;;183.63;87.10;;;;;;;3.13;86.51;98166.94;5124153;28;20095;-65
2021/01/30 05:58:35;;;;;;;177.27;79.30;;;;;;;3.19;85.89;98168.13;5123570;28;20031;-64
2021/01/30 06:01:15;;;;;;;115.75;56.25;;;;;;;3.38;85.26;98169.69;5124084;28;20031;-65
2021/01/30 06:04:07;;;;;;;150.53;69.90;;;;;;;3.35;85.13;98168.22;5123477;28;20040;-62
2021/01/30 06:06:39;;;;;;;146.93;67.97;;;;;;;3.21;85.05;98171.41;5123667;28;20044;-67
2021/01/30 06:09:28;;;;;;;148.00;70.83;;;;;;;3.34;85.35;98176.22;5123281;28;20229;-63
2021/01/30 06:11:54;;;;;;;154.37;69.50;;;;;;;3.16;85.57;98181.50;5123542;28;20046;-64
2021/01/30 06:14:30;;;;;;;151.20;68.23;;;;;;;3.31;85.59;98177.34;5123333;28;20031;-69
2021/01/30 06:17:00;;;;;;;141.03;63.27;;;;;;;3.35;86.26;98183.09;5123473;27;20035;-67
2021/01/30 06:19:34;;;;;;;129.30;60.83;;;;;;;3.53;84.46;98173.38;5122961;28;20023;-63
2021/01/30 06:22:22;;;;;;;125.67;58.50;;;;;;;3.39;85.15;98171.34;5123702;28;20144;-63
2021/01/30 06:24:49;;;;;;;139.77;62.70;;;;;;;3.37;85.46;98170.69;5123304;28;20092;-64
2021/01/30 06:27:35;;;;;;;151.20;66.20;;;;;;;3.36;85.92;98171.66;5123700;28;20027;-67
2021/01/30 06:30:12;;;;;;;157.77;72.40;;;;;;;3.30;86.04;98174.88;5123576;28;20023;-63
2021/01/30 06:32:44;;;;;;;150.33;71.73;;;;;;;3.40;86.13;98184.28;5123199;28;20035;-63
2021/01/30 06:35:12;;;;;;;141.77;64.73;;;;;;;3.56;85.27;98185.34;5122003;28;20325;-67
2021/01/30 06:37:46;;;;;;;134.67;62.40;;;;;;;3.36;85.99;98185.56;5123062;28;20313;-66
2021/01/30 06:40:33;;;;;;;132.32;59.10;;;;;;;3.51;85.39;98191.84;5123525;28;20298;-68
2021/01/30 06:43:17;;;;;;;136.37;60.10;;;;;;;3.30;86.69;98193.19;5123252;28;20047;-65
2021/01/30 06:45:45;;;;;;;148.25;63.30;;;;;;;3.19;87.37;98196.88;5127688;28;20024;-70
2021/01/30 06:48:27;;;;;;;142.60;65.17;;;;;;;3.24;88.08;98193.81;5127344;28;20382;-67
2021/01/30 06:50:53;;;;;;;154.30;66.43;;;;;;;3.26;87.99;98187.44;5127460;28;20028;-62
2021/01/30 06:53:24;;;;;;;142.63;64.73;;;;;;;3.41;86.98;98185.91;5127145;28;20027;-66
2021/01/30 06:55:50;;;;;;;146.87;66.43;;;;;;;3.39;87.64;98190.47;5127199;28;20054;-63
2021/01/30 06:58:25;;;;;;;145.73;65.10;;;;;;;3.43;87.31;98196.22;5127134;28;20040;-67
2021/01/30 07:01:05;;;;;;;151.07;69.53;;;;;;;3.40;88.16;98189.50;5127491;28;20039;-66
2021/01/30 07:03:42;;;;;;;141.70;64.90;;;;;;;3.41;87.41;98188.53;5126901;28;20041;-63
2021/01/30 07:06:15;;;;;;;139.80;62.87;;;;;;;3.38;88.28;98196.69;5127331;28;20033;-67
2021/01/30 07:08:50;;;;;;;151.60;70.07;;;;;;;3.24;88.23;98196.44;5126795;28;20028;-63
2021/01/30 07:11:49;;;;;;;139.97;66.57;;;;;;;3.33;88.29;98198.94;5126690;28;20314;-67
2021/01/30 07:14:35;;;;;;;131.80;61.77;;;;;;;3.42;88.50;98205.03;5126764;28;20361;-63
2021/01/30 07:17:13;;;;;;;121.40;56.47;;;;;;;3.43;88.01;98204.88;5126637;28;20028;-63
2021/01/30 07:19:44;;;;;;;202.23;99.07;;;;;;;3.51;88.03;98204.94;5126483;28;20054;-63
2021/01/30 07:22:29;;;;;;;140.53;64.87;;;;;;;3.66;86.99;98199.94;5126770;28;20103;-63
2021/01/30 07:25:14;;;;;;;138.17;61.60;;;;;;;3.47;87.29;98206.22;5126737;28;20029;-67
2021/01/30 07:27:45;;;;;;;143.85;67.28;;;;;;;3.42;87.96;98208.47;5126672;28;20036;-66
2021/01/30 07:30:23;;;;;;;153.67;69.00;;;;;;;3.64;87.85;98209.75;5126641;28;20028;-63
2021/01/30 07:32:59;;;;;;;159.53;73.43;;;;;;;3.74;87.40;98205.22;5126496;28;20036;-67
2021/01/30 07:35:34;;;;;;;144.40;66.13;;;;;;;3.69;87.38;98209.28;5126570;28;20115;-67
2021/01/30 07:38:20;;;;;;;139.83;65.03;;;;;;;3.75;87.49;98216.50;5126268;28;20040;-67
2021/01/30 07:40:56;;;;;;;137.70;62.57;;;;;;;3.85;86.99;98214.59;5126761;28;20071;-67
2021/01/30 07:43:26;;;;;;;128.50;56.83;;;;;;;3.86;87.03;98224.09;5126314;28;20311;-63
2021/01/30 07:46:04;;;;;;;132.03;56.50;;;;;;;4.05;87.06;98216.00;5126679;27;20038;-63
2021/01/30 07:48:52;;;;;;;123.77;52.67;;;;;;;3.95;86.35;98217.91;5125943;28;20039;-63
2021/01/30 07:51:28;;;;;;;123.00;52.97;;;;;;;3.81;86.65;98228.97;5126430;28;20364;-62
2021/01/30 07:53:54;;;;;;;128.80;59.60;;;;;;;4.00;87.05;98230.53;5126206;28;20039;-63
2021/01/30 07:56:19;;;;;;;115.60;54.53;;;;;;;4.10;85.72;98229.44;5125102;28;20225;-63
2021/01/30 07:58:53;;;;;;;116.00;53.23;;;;;;;4.19;85.97;98238.19;5125909;28;20067;-66
2021/01/30 08:01:18;;;;;;;;;;;;;;;4.16;86.00;98239.31;5126956;28;20031;-62
2021/01/30 08:04:08;;;;;;;101.30;48.10;;;;;;;4.06;86.44;98249.06;5125771;28;19974;-63
2021/01/30 08:07:14;;;;;;;112.10;51.63;;;;;;;4.30;86.02;98250.16;5125907;28;20229;-63
2021/01/30 08:09:54;;;;;;;117.87;51.00;;;;;;;4.20;86.33;98254.72;5125546;27;20035;-63
2021/01/30 08:12:53;;;;;;;103.30;48.07;;;;;;;4.24;86.69;98259.47;5125621;27;20107;-66
2021/01/30 08:15:30;;;;;;;100.47;44.90;;;;;;;4.24;86.43;98261.28;5125835;28;20059;-66
2021/01/30 08:17:59;;;;;;;94.60;44.40;;;;;;;4.51;85.66;98271.53;5125510;28;20032;-67
2021/01/30 08:20:37;;;;;;;94.07;45.43;;;;;;;4.49;85.38;98276.09;5125690;27;20042;-63
2021/01/30 08:23:44;;;;;;;103.20;45.70;;;;;;;4.57;85.82;98285.78;5125465;28;20270;-67
2021/01/30 08:26:36;;;;;;;100.97;46.23;;;;;;;4.56;85.55;98286.78;5062661;28;20240;-67
2021/01/30 08:29:14;;;;;;;100.60;46.07;;;;;;;4.43;86.35;98282.81;5057966;28;20122;-67
2021/01/30 08:31:54;;;;;;;92.30;41.97;;;;;;;4.61;86.26;98289.72;5108442;27;20347;-66
2021/01/30 08:34:19;;;;;;;93.20;42.93;;;;;;;4.61;86.73;98289.72;5125162;28;20264;-66
2021/01/30 08:36:48;;;;;;;80.23;38.77;;;;;;;4.62;86.19;98294.81;5125516;28;20044;-63
2021/01/30 08:39:24;;;;;;;73.43;36.03;;;;;;;4.30;87.81;98303.38;5125007;28;20026;-62
2021/01/30 08:42:17;;;;;;;76.73;36.60;;;;;;;4.38;87.96;98315.72;5125158;28;20039;-63
2021/01/30 08:44:48;;;;;;;76.67;35.17;;;;;;;4.38;88.34;98316.53;5125058;28;20031;-67
2021/01/30 08:47:33;;;;;;;67.97;35.23;;;;;;;4.36;87.94;98326.34;5124994;28;20055;-62
2021/01/30 08:50:30;;;;;;;74.47;36.00;;;;;;;4.49;88.13;98329.34;5125145;28;20047;-63
2021/01/30 08:53:14;;;;;;;85.97;40.30;;;;;;;4.48;88.49;98324.25;5124751;28;20031;-62
2021/01/30 08:55:45;;;;;;;86.43;43.20;;;;;;;4.67;87.93;98329.25;5125182;28;20055;-63
2021/01/30 08:58:35;;;;;;;96.03;44.88;;;;;;;4.59;88.01;98310.88;5125188;28;20328;-67
2021/01/30 09:01:19;;;;;;;80.23;38.30;;;;;;;4.70;88.25;98313.19;5125174;28;20038;-63
2021/01/30 09:03:55;;;;;;;74.68;35.15;;;;;;;4.71;88.34;98301.72;5124541;28;20035;-67
2021/01/30 09:06:39;;;;;;;60.23;29.27;;;;;;;4.69;88.76;98298.44;5125145;28;20031;-67
2021/01/30 09:09:16;;;;;;;64.00;31.25;;;;;;;4.60;89.64;98295.97;5124383;28;20241;-63
2021/01/30 09:11:45;;;;;;;61.77;28.97;;;;;;;4.55;90.35;98299.06;5124335;28;20043;-63
2021/01/30 09:14:18;;;;;;;60.90;29.00;;;;;;;4.65;89.66;98289.25;5124322;28;20027;-63
2021/01/30 09:17:06;;;;;;;56.17;27.40;;;;;;;4.86;89.39;98295.84;5124680;28;20106;-67
2021/01/30 09:20:19;;;;;;;58.20;28.10;;;;;;;4.92;89.27;98282.91;5124420;28;20448;-63
2021/01/30 09:23:32;;;;;;;47.73;24.13;;;;;;;5.04;88.87;98278.19;5061615;28;20045;-66
2021/01/30 09:26:08;;;;;;;46.22;22.27;;;;;;;5.05;89.22;98278.00;5009192;28;20049;-63
2021/01/30 09:28:34;;;;;;;49.13;24.00;;;;;;;5.17;88.68;98270.63;5115527;28;20259;-63
2021/01/30 09:31:01;;;;;;;45.37;23.80;;;;;;;5.30;88.64;98265.75;5124529;28;20031;-63
2021/01/30 09:33:31;;;;;;;55.40;25.43;;;;;;;5.39;88.90;98274.44;5123961;28;20041;-63
2021/01/30 09:36:15;;;;;;;57.57;26.87;;;;;;;5.58;89.43;98275.91;5124474;28;20025;-67
2021/01/30 09:38:50;;;;;;;50.97;25.27;;;;;;;5.73;89.30;98282.13;5124306;28;20038;-67
2021/01/30 09:41:25;;;;;;;51.70;26.35;;;;;;;5.78;89.10;98280.63;5124397;28;20038;-67
2021/01/30 09:44:16;;;;;;;57.03;26.98;;;;;;;5.91;88.94;98272.25;5123845;28;20091;-63
2021/01/30 09:46:43;;;;;;;46.05;22.98;;;;;;;6.04;88.66;98276.97;5123800;28;20035;-67
2021/01/30 09:49:18;;;;;;;45.27;22.73;;;;;;;6.24;88.00;98286.13;5123465;28;20034;-67
2021/01/30 09:51:44;;;;;;;40.65;18.65;;;;;;;6.31;87.22;98279.22;5124042;28;20308;-63
2021/01/30 09:54:15;;;;;;;42.60;21.55;;;;;;;6.41;87.53;98289.53;5123593;28;20027;-63
2021/01/30 09:56:41;;;;;;;39.88;19.13;;;;;;;6.45;87.12;98282.94;5124034;28;20221;-63
2021/01/30 09:59:07;;;;;;;34.33;17.80;;;;;;;6.46;87.42;98276.69;5123437;28;20031;-66
2021/01/30 10:01:38;;;;;;;37.35;17.23;;;;;;;6.60;86.61;98277.75;5123651;28;20042;-67
2021/01/30 10:04:25;;;;;;;29.58;15.77;;;;;;;6.66;85.92;98284.97;5122189;28;20348;-66
2021/01/30 10:06:54;;;;;;;29.80;16.02;;;;;;;6.65;87.34;98286.78;5123575;28;20251;-67
2021/01/30 10:09:24;;;;;;;23.40;13.60;;;;;;;6.65;86.34;98276.25;5123456;28;20098;-67
2021/01/30 10:11:54;;;;;;;27.85;13.02;;;;;;;6.70;85.67;98279.19;5123377;28;20063;-63
2021/01/30 10:14:21;;;;;;;23.98;12.38;;;;;;;6.76;86.21;98276.84;5123592;28;20094;-67
2021/01/30 10:17:05;;;;;;;23.20;12.57;;;;;;;6.88;86.61;98272.81;5123598;28;20103;-63
2021/01/30 10:19:34;;;;;;;21.67;11.95;;;;;;;6.98;85.61;98276.88;5122896;28;20335;-67
2021/01/30 10:22:16;;;;;;;18.00;10.20;;;;;;;7.10;84.92;98284.34;5123470;28;20043;-67
2021/01/30 10:24:43;;;;;;;20.90;12.43;;;;;;;7.24;85.45;98281.78;5123466;28;20087;-67
2021/01/30 10:27:21;;;;;;;20.58;11.00;;;;;;;7.28;84.95;98277.84;5123359;28;20020;-63
2021/01/30 10:29:47;;;;;;;21.35;11.35;;;;;;;7.43;84.92;98288.41;5123214;28;20137;-67
2021/01/30 10:32:21;;;;;;;21.83;11.27;;;;;;;7.45;84.17;98283.78;5122067;28;20027;-63
2021/01/30 10:34:53;;;;;;;13.90;8.60;;;;;;;7.64;84.17;98282.47;5123365;28;20031;-67
2021/01/30 10:37:28;;;;;;;16.63;9.20;;;;;;;7.69;84.30;98283.56;5123313;28;20230;-63
2021/01/30 10:40:01;;;;;;;13.65;8.02;;;;;;;7.92;83.46;98280.03;5123157;28;20086;-63
2021/01/30 10:42:32;;;;;;;11.60;5.80;;;;;;;7.97;83.05;98275.03;5123378;28;20028;-67
2021/01/30 10:45:04;;;;;;;12.48;7.18;;;;;;;8.22;82.86;98280.88;5123292;28;20045;-67
2021/01/30 10:47:29;;;;;;;7.10;4.90;;;;;;;8.13;81.63;98280.13;5123365;28;20139;-67
2021/01/30 10:50:09;;;;;;;8.35;4.75;;;;;;;8.21;81.41;98285.31;5123160;28;20027;-67
2021/01/30 10:52:35;;;;;;;6.53;3.90;;;;;;;8.15;81.29;98283.41;5123554;28;20094;-63
2021/01/30 10:55:22;;;;;;;7.63;4.00;;;;;;;8.33;81.31;98293.66;5123215;28;20042;-67
2021/01/30 10:57:48;;;;;;;8.25;4.03;;;;;;;8.34;80.32;98283.91;5123298;28;20236;-63
2021/01/30 11:00:31;;;;;;;9.27;4.55;;;;;;;8.40;80.31;98288.47;5123027;28;20087;-63
2021/01/30 11:02:57;;;;;;;10.73;5.22;;;;;;;8.40;79.83;98286.63;5122966;28;20330;-67
2021/01/30 11:05:28;;;;;;;12.60;5.18;;;;;;;8.52;79.77;98289.63;5123169;28;20023;-67
2021/01/30 11:08:02;;;;;;;13.80;7.50;;;;;;;8.48;79.14;98281.25;5123209;28;20024;-67
2021/01/30 11:10:41;;;;;;;7.43;4.32;;;;;;;8.57;79.25;98282.78;5121478;28;20099;-67
2021/01/30 11:13:13;;;;;;;7.45;3.80;;;;;;;8.41;78.49;98277.72;5122928;28;20073;-67
2021/01/30 11:15:44;;;;;;;6.70;3.85;;;;;;;8.42;79.52;98276.72;5122711;28;20024;-64
2021/01/30 11:18:27;;;;;;;9.57;5.32;;;;;;;8.27;79.51;98257.41;5122957;28;20241;-67
2021/01/30 11:20:55;;;;;;;8.35;4.85;;;;;;;8.34;79.54;98268.09;5123180;28;20036;-63
2021/01/30 11:23:41;;;;;;;6.20;3.75;;;;;;;8.28;80.10;98259.84;5123063;28;20243;-63
2021/01/30 11:26:16;;;;;;;12.00;6.57;;;;;;;8.38;80.26;98266.72;5122711;28;20038;-67
2021/01/30 11:28:43;;;;;;;7.40;4.82;;;;;;;8.35;79.26;98265.28;5122668;28;20059;-67
2021/01/30 11:31:10;;;;;;;8.98;4.63;;;;;;;8.39;79.92;98271.00;5124889;28;20031;-67
2021/01/30 11:33:36;;;;;;;18.40;8.15;;;;;;;8.45;80.12;98257.91;5126357;28;20051;-63
2021/01/30 11:36:05;;;;;;;11.30;6.60;;;;;;;8.46;79.95;98254.25;5126283;27;20336;-67
2021/01/30 11:38:30;;;;;;;6.82;4.78;;;;;;;8.58;79.45;98247.50;5126361;28;20103;-67
2021/01/30 11:40:58;;;;;;;8.88;4.20;;;;;;;8.55;79.83;98254.97;5125279;28;20199;-63
2021/01/30 11:43:24;;;;;;;6.10;3.33;;;;;;;8.64;78.98;98233.56;5126242;28;20032;-63
2021/01/30 11:45:50;;;;;;;8.15;3.45;;;;;;;8.71;79.45;98252.09;5126019;28;20229;-67
2021/01/30 11:48:17;;;;;;;5.93;3.50;;;;;;;8.76;79.18;98249.72;5124868;28;20031;-67
2021/01/30 11:50:43;;;;;;;8.80;5.30;;;;;;;8.82;79.22;98256.88;5125021;28;20051;-63